createdAt,value
2019-04-25T00:00:33.827Z,0.00
2019-04-25T00:01:33.828Z,0.00
2019-04-25T00:02:33.797Z,0.00
2019-04-25T00:03:33.787Z,0.00
2019-04-25T00:04:33.775Z,0.00
2019-04-25T00:05:33.768Z,0.00
2019-04-25T00:06:33.784Z,0.00
2019-04-25T00:07:33.748Z,0.00
2019-04-25T00:08:33.727Z,0.00
2019-04-25T00:09:33.715Z,0.00
2019-04-25T00:10:33.728Z,0.00
2019-04-25T00:11:33.722Z,0.00
2019-04-25T00:12:33.688Z,0.00
2019-04-25T00:13:33.673Z,0.00
2019-04-25T00:14:33.657Z,0.00
2019-04-25T00:15:33.658Z,0.00
2019-04-25T00:16:33.668Z,0.00
2019-04-25T00:17:33.650Z,0.00
2019-04-25T00:18:33.626Z,0.00
2019-04-25T00:19:33.615Z,0.00
2019-04-25T00:20:33.607Z,0.00
2019-04-25T00:21:33.902Z,0.00
2019-04-25T00:22:33.626Z,0.00
2019-04-25T00:23:33.567Z,0.00
2019-04-25T00:24:33.554Z,0.00
2019-04-25T00:25:33.537Z,0.00
2019-04-25T00:26:33.536Z,0.00
2019-04-25T00:27:35.216Z,0.00
2019-04-25T00:28:33.506Z,0.00
2019-04-25T00:29:33.516Z,0.00
2019-04-25T00:30:33.487Z,0.00
2019-04-25T00:31:33.476Z,0.00
2019-04-25T00:32:33.476Z,0.00
2019-04-25T00:33:33.455Z,0.00
2019-04-25T00:34:33.673Z,0.00
2019-04-25T00:35:33.558Z,0.00
2019-04-25T00:36:33.427Z,0.00
2019-04-25T00:37:33.428Z,0.00
2019-04-25T00:38:33.396Z,0.00
2019-04-25T00:39:33.393Z,0.00
2019-04-25T00:40:33.376Z,0.00
2019-04-25T00:41:34.210Z,0.00
2019-04-25T00:42:33.386Z,0.00
2019-04-25T00:43:33.349Z,0.00
2019-04-25T00:44:33.325Z,0.00
2019-04-25T00:45:33.316Z,0.00
2019-04-25T00:46:33.306Z,0.00
2019-04-25T00:47:33.397Z,0.00
2019-04-25T00:48:33.290Z,0.00
2019-04-25T00:49:33.304Z,0.00
2019-04-25T00:50:33.278Z,0.00
2019-04-25T00:51:33.254Z,0.00
2019-04-25T00:52:33.365Z,0.00
2019-04-25T00:53:33.245Z,0.00
2019-04-25T00:54:33.250Z,0.00
2019-04-25T00:55:33.215Z,0.00
2019-04-25T00:56:33.215Z,0.00
2019-04-25T00:57:33.258Z,0.00
2019-04-25T00:58:33.188Z,0.00
2019-04-25T00:59:33.168Z,0.00
2019-04-25T01:00:33.172Z,0.00
2019-04-25T01:01:33.141Z,0.00
2019-04-25T01:02:33.155Z,0.00
2019-04-25T01:03:33.165Z,0.00
2019-04-25T01:04:33.610Z,0.00
2019-04-25T01:05:33.109Z,0.00
2019-04-25T01:06:33.093Z,0.00
2019-04-25T01:07:34.488Z,0.00
2019-04-25T01:08:33.084Z,0.00
2019-04-25T01:09:33.055Z,0.00
2019-04-25T01:10:33.047Z,0.00
2019-04-25T01:11:33.034Z,0.00
2019-04-25T01:12:33.035Z,0.00
2019-04-25T01:13:33.145Z,0.00
2019-04-25T01:14:33.773Z,0.00
2019-04-25T01:15:32.989Z,0.00
2019-04-25T01:16:32.975Z,0.00
2019-04-25T01:17:32.974Z,0.00
2019-04-25T01:18:33.737Z,0.00
2019-04-25T01:19:34.364Z,0.00
2019-04-25T01:20:34.389Z,0.00
2019-04-25T01:21:34.000Z,0.00
2019-04-25T01:22:34.336Z,0.00
2019-04-25T01:23:33.645Z,0.00
2019-04-25T01:24:34.014Z,0.00
2019-04-25T01:25:40.431Z,0.00
2019-04-25T01:26:33.960Z,0.00
2019-04-25T01:27:33.279Z,0.00
2019-04-25T01:28:33.587Z,0.00
2019-04-25T01:29:33.491Z,0.00
2019-04-25T01:30:33.954Z,0.00
2019-04-25T01:31:33.599Z,0.00
2019-04-25T01:32:33.500Z,0.00
2019-04-25T01:33:33.345Z,0.00
2019-04-25T01:34:34.246Z,0.00
2019-04-25T01:35:33.453Z,0.00
2019-04-25T01:36:33.216Z,0.00
2019-04-25T01:37:34.100Z,0.00
2019-04-25T01:38:33.518Z,0.00
2019-04-25T01:39:34.190Z,0.00
2019-04-25T01:40:33.391Z,0.00
2019-04-25T01:41:34.154Z,0.00
2019-04-25T01:42:33.760Z,0.00
2019-04-25T01:43:33.196Z,0.00
2019-04-25T01:44:34.077Z,0.00
2019-04-25T01:45:33.906Z,0.00
2019-04-25T01:46:34.133Z,0.00
2019-04-25T01:47:33.616Z,0.00
2019-04-25T01:48:33.342Z,0.00
2019-04-25T01:49:33.942Z,0.00
2019-04-25T01:50:33.199Z,0.00
2019-04-25T01:51:33.924Z,0.00
2019-04-25T01:52:33.481Z,0.00
2019-04-25T01:53:33.929Z,0.00
2019-04-25T01:54:33.938Z,0.00
2019-04-25T01:55:33.577Z,0.00
2019-04-25T01:56:33.291Z,0.00
2019-04-25T01:57:33.741Z,0.00
2019-04-25T01:58:33.749Z,0.00
2019-04-25T01:59:33.838Z,0.00
2019-04-25T02:00:33.283Z,0.00
2019-04-25T02:01:34.011Z,0.00
2019-04-25T02:02:33.605Z,0.00
2019-04-25T02:03:35.423Z,0.00
2019-04-25T02:04:34.065Z,0.00
2019-04-25T02:05:33.810Z,0.00
2019-04-25T02:06:33.443Z,0.00
2019-04-25T02:07:33.383Z,0.00
2019-04-25T02:08:34.001Z,0.00
2019-04-25T02:09:33.675Z,0.00
2019-04-25T02:10:32.381Z,0.00
2019-04-25T02:11:33.922Z,0.00
2019-04-25T02:12:33.610Z,0.00
2019-04-25T02:13:33.583Z,0.00
2019-04-25T02:14:33.619Z,0.00
2019-04-25T02:15:33.435Z,0.00
2019-04-25T02:16:33.563Z,0.00
2019-04-25T02:17:33.952Z,0.00
2019-04-25T02:18:33.585Z,0.00
2019-04-25T02:19:34.275Z,0.00
2019-04-25T02:20:33.796Z,0.00
2019-04-25T02:21:33.500Z,0.00
2019-04-25T02:22:32.260Z,0.00
2019-04-25T02:23:32.243Z,0.00
2019-04-25T02:24:33.761Z,0.00
2019-04-25T02:25:33.232Z,0.00
2019-04-25T02:26:32.192Z,0.00
2019-04-25T02:27:32.193Z,0.00
2019-04-25T02:28:33.692Z,0.00
2019-04-25T02:29:33.261Z,0.00
2019-04-25T02:30:35.312Z,0.00
2019-04-25T02:31:34.446Z,0.00
2019-04-25T02:32:34.454Z,0.00
2019-04-25T02:33:34.041Z,0.00
2019-04-25T02:34:34.357Z,0.00
2019-04-25T02:35:34.731Z,0.00
2019-04-25T02:36:34.420Z,0.00
2019-04-25T02:37:32.074Z,0.00
2019-04-25T02:38:34.031Z,0.00
2019-04-25T02:39:34.868Z,0.00
2019-04-25T02:40:33.851Z,0.00
2019-04-25T02:41:34.271Z,0.00
2019-04-25T02:42:34.231Z,0.00
2019-04-25T02:43:32.011Z,0.00
2019-04-25T02:44:32.005Z,0.00
2019-04-25T02:45:34.243Z,0.00
2019-04-25T02:46:31.982Z,0.00
2019-04-25T02:47:34.272Z,0.00
2019-04-25T02:48:34.180Z,0.00
2019-04-25T02:49:38.207Z,0.00
2019-04-25T02:50:34.329Z,0.00
2019-04-25T02:51:31.944Z,0.00
2019-04-25T02:52:34.232Z,0.00
2019-04-25T02:53:36.495Z,0.00
2019-04-25T02:54:34.858Z,0.00
2019-04-25T02:55:35.026Z,0.00
2019-04-25T02:56:37.612Z,0.00
2019-04-25T02:57:34.550Z,0.00
2019-04-25T02:58:34.086Z,0.00
2019-04-25T02:59:31.841Z,0.00
2019-04-25T03:04:28.885Z,0.00
2019-04-25T03:05:01.324Z,0.00
2019-04-25T03:06:01.395Z,0.00
2019-04-25T03:07:01.994Z,0.00
2019-04-25T03:08:01.474Z,0.00
2019-04-25T03:09:00.658Z,0.00
2019-04-25T03:10:01.836Z,0.00
2019-04-25T03:11:01.311Z,0.00
2019-04-25T03:12:00.115Z,0.00
2019-04-25T03:13:00.415Z,0.00
2019-04-25T03:14:00.551Z,0.00
2019-04-25T03:15:00.188Z,0.00
2019-04-25T03:16:00.608Z,0.00
2019-04-25T03:17:00.389Z,0.00
2019-04-25T03:18:00.251Z,0.00
2019-04-25T03:19:00.528Z,0.00
2019-04-25T03:20:01.349Z,0.00
2019-04-25T03:21:01.276Z,0.00
2019-04-25T03:22:01.473Z,0.00
2019-04-25T03:23:01.130Z,0.00
2019-04-25T03:24:01.315Z,0.00
2019-04-25T03:25:01.814Z,0.00
2019-04-25T03:26:00.620Z,0.00
2019-04-25T03:27:00.811Z,0.00
2019-04-25T03:28:01.149Z,0.00
2019-04-25T03:28:59.874Z,0.00
2019-04-25T03:29:59.887Z,0.00
2019-04-25T03:31:01.725Z,0.00
2019-04-25T03:32:00.915Z,0.00
2019-04-25T03:33:02.215Z,0.00
2019-04-25T03:34:02.139Z,0.00
2019-04-25T03:35:01.170Z,0.00
2019-04-25T03:36:00.695Z,0.00
2019-04-25T03:36:59.786Z,0.00
2019-04-25T03:38:01.128Z,0.00
2019-04-25T03:38:59.997Z,0.00
2019-04-25T03:39:59.761Z,0.00
2019-04-25T03:41:00.181Z,0.00
2019-04-25T03:41:59.733Z,0.00
2019-04-25T03:43:00.503Z,0.00
2019-04-25T03:43:59.707Z,0.00
2019-04-25T03:44:59.696Z,0.00
2019-04-25T03:45:59.684Z,0.00
2019-04-25T03:46:59.674Z,0.00
2019-04-25T03:47:59.683Z,0.00
2019-04-25T03:48:59.678Z,0.00
2019-04-25T03:49:59.644Z,0.00
2019-04-25T03:50:59.632Z,0.00
2019-04-25T03:51:59.623Z,0.00
2019-04-25T03:52:59.623Z,0.00
2019-04-25T03:53:59.611Z,0.00
2019-04-25T03:54:59.588Z,0.00
2019-04-25T03:55:59.574Z,0.00
2019-04-25T03:56:59.562Z,0.00
2019-04-25T03:57:59.573Z,0.00
2019-04-25T03:58:59.546Z,0.00
2019-04-25T03:59:59.532Z,0.00
2019-04-25T04:00:59.529Z,5.62
2019-04-25T04:02:01.168Z,5.62
2019-04-25T04:02:59.513Z,11.25
2019-04-25T04:03:59.538Z,11.25
2019-04-25T04:04:59.476Z,11.25
2019-04-25T04:05:59.464Z,11.25
2019-04-25T04:06:59.452Z,11.25
2019-04-25T04:07:59.450Z,11.25
2019-04-25T04:08:59.442Z,11.25
2019-04-25T04:09:59.414Z,11.25
2019-04-25T04:10:59.412Z,11.25
2019-04-25T04:11:59.410Z,11.25
2019-04-25T04:12:59.388Z,16.88
2019-04-25T04:13:59.393Z,16.88
2019-04-25T04:14:59.364Z,16.88
2019-04-25T04:15:59.347Z,22.50
2019-04-25T04:16:59.344Z,22.50
2019-04-25T04:17:59.331Z,22.50
2019-04-25T04:18:59.331Z,28.12
2019-04-25T04:19:59.305Z,28.12
2019-04-25T04:20:59.303Z,28.12
2019-04-25T04:21:59.284Z,28.12
2019-04-25T04:22:59.284Z,28.12
2019-04-25T04:23:59.382Z,28.12
2019-04-25T04:24:59.250Z,28.12
2019-04-25T04:25:59.241Z,28.12
2019-04-25T04:27:03.712Z,28.12
2019-04-25T04:28:00.212Z,28.12
2019-04-25T04:28:59.231Z,33.75
2019-04-25T04:29:59.202Z,33.75
2019-04-25T04:30:59.197Z,33.75
2019-04-25T04:31:59.173Z,33.75
2019-04-25T04:32:59.171Z,33.75
2019-04-25T04:33:59.203Z,33.75
2019-04-25T04:34:59.170Z,33.75
2019-04-25T04:35:59.122Z,33.75
2019-04-25T04:36:59.177Z,39.38
2019-04-25T04:37:59.140Z,39.38
2019-04-25T04:38:59.143Z,39.38
2019-04-25T04:39:59.122Z,39.38
2019-04-25T04:40:59.110Z,39.38
2019-04-25T04:41:59.070Z,45.00
2019-04-25T04:42:59.053Z,45.00
2019-04-25T04:43:59.052Z,45.00
2019-04-25T04:44:59.034Z,50.62
2019-04-25T04:45:59.019Z,50.62
2019-04-25T04:46:59.015Z,50.62
2019-04-25T04:47:59.030Z,56.25
2019-04-25T04:48:59.006Z,56.25
2019-04-25T04:49:58.969Z,56.25
2019-04-25T04:50:58.966Z,56.25
2019-04-25T04:51:58.962Z,56.25
2019-04-25T04:52:58.972Z,61.88
2019-04-25T04:53:58.944Z,61.88
2019-04-25T04:55:06.329Z,61.88
2019-04-25T04:55:59.911Z,61.88
2019-04-25T04:56:58.899Z,61.88
2019-04-25T04:58:01.353Z,61.88
2019-04-25T04:58:58.889Z,61.88
2019-04-25T04:59:58.860Z,61.88
2019-04-25T05:00:58.851Z,61.88
2019-04-25T05:01:58.852Z,61.88
2019-04-25T05:02:58.838Z,67.50
2019-04-25T05:03:58.842Z,67.50
2019-04-25T05:04:59.710Z,67.50
2019-04-25T05:05:58.816Z,67.50
2019-04-25T05:06:58.787Z,67.50
2019-04-25T05:07:58.797Z,67.50
2019-04-25T05:08:58.781Z,67.50
2019-04-25T05:09:58.773Z,73.12
2019-04-25T05:10:58.739Z,73.12
2019-04-25T05:11:58.730Z,73.12
2019-04-25T05:12:58.738Z,73.12
2019-04-25T05:13:58.726Z,73.12
2019-04-25T05:14:58.720Z,78.75
2019-04-25T05:15:58.691Z,78.75
2019-04-25T05:16:58.679Z,78.75
2019-04-25T05:17:58.661Z,78.75
2019-04-25T05:18:58.656Z,78.75
2019-04-25T05:19:58.659Z,84.38
2019-04-25T05:20:58.628Z,84.38
2019-04-25T05:21:58.620Z,84.38
2019-04-25T05:22:58.603Z,84.38
2019-04-25T05:23:58.597Z,84.38
2019-04-25T05:24:58.601Z,90.00
2019-04-25T05:25:58.579Z,90.00
2019-04-25T05:26:58.580Z,90.00
2019-04-25T05:28:02.898Z,90.00
2019-04-25T05:28:59.545Z,90.00
2019-04-25T05:29:58.548Z,90.00
2019-04-25T05:30:58.520Z,90.00
2019-04-25T05:31:58.527Z,95.62
2019-04-25T05:32:58.489Z,95.62
2019-04-25T05:33:58.486Z,95.62
2019-04-25T05:34:58.501Z,95.62
2019-04-25T05:35:58.476Z,95.62
2019-04-25T05:36:58.447Z,95.62
2019-04-25T05:37:58.437Z,101.25
2019-04-25T05:38:58.426Z,101.25
2019-04-25T05:39:58.453Z,101.25
2019-04-25T05:40:58.426Z,101.25
2019-04-25T05:41:58.400Z,101.25
2019-04-25T05:42:58.398Z,95.62
2019-04-25T05:43:58.377Z,106.88
2019-04-25T05:44:58.358Z,106.88
2019-04-25T05:45:58.378Z,106.88
2019-04-25T05:46:58.358Z,106.88
2019-04-25T05:47:58.336Z,106.88
2019-04-25T05:48:58.317Z,112.50
2019-04-25T05:49:58.315Z,112.50
2019-04-25T05:50:58.307Z,112.50
2019-04-25T05:51:58.296Z,112.50
2019-04-25T05:52:58.313Z,112.50
2019-04-25T05:53:58.266Z,112.50
2019-04-25T05:54:58.255Z,112.50
2019-04-25T05:55:58.258Z,112.50
2019-04-25T05:56:58.233Z,118.12
2019-04-25T05:57:58.245Z,118.12
2019-04-25T05:58:58.235Z,118.12
2019-04-25T05:59:58.198Z,118.12
2019-04-25T06:00:58.225Z,118.12
2019-04-25T06:01:58.171Z,129.38
2019-04-25T06:02:58.180Z,135.00
2019-04-25T06:03:58.169Z,118.12
2019-04-25T06:04:58.173Z,118.12
2019-04-25T06:05:58.150Z,123.75
2019-04-25T06:06:58.139Z,118.12
2019-04-25T06:07:58.116Z,118.12
2019-04-25T06:08:58.097Z,118.12
2019-04-25T06:09:58.118Z,118.12
2019-04-25T06:10:58.104Z,118.12
2019-04-25T06:11:58.080Z,118.12
2019-04-25T06:12:58.055Z,123.75
2019-04-25T06:14:00.191Z,123.75
2019-04-25T06:14:58.043Z,118.12
2019-04-25T06:15:58.042Z,123.75
2019-04-25T06:16:58.120Z,118.12
2019-04-25T06:17:57.997Z,123.75
2019-04-25T06:18:57.989Z,123.75
2019-04-25T06:19:57.980Z,123.75
2019-04-25T06:20:57.995Z,123.75
2019-04-25T06:21:57.966Z,123.75
2019-04-25T06:22:57.969Z,123.75
2019-04-25T06:23:57.927Z,123.75
2019-04-25T06:24:57.978Z,123.75
2019-04-25T06:25:57.918Z,123.75
2019-04-25T06:26:57.897Z,118.12
2019-04-25T06:27:59.168Z,118.12
2019-04-25T06:28:59.831Z,118.12
2019-04-25T06:30:00.781Z,118.12
2019-04-25T06:30:57.856Z,118.12
2019-04-25T06:32:05.726Z,118.12
2019-04-25T06:32:58.863Z,118.12
2019-04-25T06:33:57.848Z,123.75
2019-04-25T06:34:57.817Z,123.75
2019-04-25T06:35:57.798Z,123.75
2019-04-25T06:36:57.786Z,123.75
2019-04-25T06:37:57.786Z,123.75
2019-04-25T06:38:57.808Z,123.75
2019-04-25T06:39:57.767Z,123.75
2019-04-25T06:40:57.752Z,123.75
2019-04-25T06:41:57.755Z,123.75
2019-04-25T06:42:57.729Z,123.75
2019-04-25T06:43:57.717Z,123.75
2019-04-25T06:44:57.706Z,123.75
2019-04-25T06:45:57.706Z,123.75
2019-04-25T06:46:57.736Z,123.75
2019-04-25T06:47:57.675Z,123.75
2019-04-25T06:48:57.677Z,123.75
2019-04-25T06:49:57.659Z,123.75
2019-04-25T06:50:57.637Z,129.38
2019-04-25T06:51:57.646Z,129.38
2019-04-25T06:52:57.615Z,129.38
2019-04-25T06:53:57.609Z,129.38
2019-04-25T06:54:57.595Z,129.38
2019-04-25T06:55:57.580Z,129.38
2019-04-25T06:56:57.640Z,129.38
2019-04-25T06:58:09.127Z,129.38
2019-04-25T07:00:07.414Z,129.38
2019-04-25T07:01:07.391Z,129.38
2019-04-25T07:02:07.400Z,129.38
2019-04-25T07:03:07.390Z,129.38
2019-04-25T07:04:07.361Z,135.00
2019-04-25T07:05:07.352Z,135.00
2019-04-25T07:06:07.381Z,135.00
2019-04-25T07:07:12.144Z,135.00
2019-04-25T07:08:08.352Z,135.00
2019-04-25T07:09:07.311Z,135.00
2019-04-25T07:10:07.560Z,135.00
2019-04-25T07:11:07.294Z,129.38
2019-04-25T07:12:07.270Z,140.62
2019-04-25T07:13:07.283Z,140.62
2019-04-25T07:14:07.272Z,140.62
2019-04-25T07:15:07.255Z,140.62
2019-04-25T07:16:07.231Z,140.62
2019-04-25T07:17:07.231Z,140.62
2019-04-25T07:18:07.217Z,140.62
2019-04-25T07:19:07.231Z,146.25
2019-04-25T07:20:07.191Z,146.25
2019-04-25T07:21:07.171Z,151.88
2019-04-25T07:22:07.170Z,151.88
2019-04-25T07:23:07.151Z,157.50
2019-04-25T07:24:07.305Z,157.50
2019-04-25T07:25:07.131Z,163.12
2019-04-25T07:26:07.128Z,157.50
2019-04-25T07:27:07.112Z,163.12
2019-04-25T07:28:07.101Z,163.12
2019-04-25T07:29:07.109Z,168.75
2019-04-25T07:30:07.090Z,174.38
2019-04-25T07:31:07.062Z,174.38
2019-04-25T07:32:07.060Z,168.75
2019-04-25T07:33:07.074Z,163.12
2019-04-25T07:34:07.048Z,157.50
2019-04-25T07:35:07.022Z,157.50
2019-04-25T07:36:07.160Z,151.88
2019-04-25T07:37:07.001Z,146.25
2019-04-25T07:38:06.990Z,151.88
2019-04-25T07:39:10.387Z,151.88
2019-04-25T07:40:06.969Z,146.25
2019-04-25T07:41:06.981Z,146.25
2019-04-25T07:42:06.970Z,151.88
2019-04-25T07:43:06.940Z,151.88
2019-04-25T07:44:06.941Z,151.88
2019-04-25T07:45:06.948Z,151.88
2019-04-25T07:46:06.899Z,151.88
2019-04-25T07:47:06.888Z,151.88
2019-04-25T07:48:06.882Z,146.25
2019-04-25T07:49:06.903Z,151.88
2019-04-25T07:50:06.881Z,157.50
2019-04-25T07:51:06.841Z,157.50
2019-04-25T07:52:06.840Z,157.50
2019-04-25T07:53:06.852Z,157.50
2019-04-25T07:54:06.810Z,157.50
2019-04-25T07:55:06.821Z,157.50
2019-04-25T07:56:06.791Z,163.12
2019-04-25T07:57:06.782Z,157.50
2019-04-25T07:58:06.771Z,163.12
2019-04-25T07:59:06.770Z,157.50
2019-04-25T08:00:06.780Z,157.50
2019-04-25T08:01:06.731Z,157.50
2019-04-25T08:02:06.722Z,157.50
2019-04-25T08:03:06.711Z,157.50
2019-04-25T08:04:06.723Z,157.50
2019-04-25T08:05:06.710Z,157.50
2019-04-25T08:06:06.681Z,163.12
2019-04-25T08:07:06.661Z,163.12
2019-04-25T08:08:06.660Z,163.12
2019-04-25T08:09:06.652Z,168.75
2019-04-25T08:10:06.662Z,163.12
2019-04-25T08:11:06.624Z,168.75
2019-04-25T08:12:06.612Z,168.75
2019-04-25T08:13:06.631Z,168.75
2019-04-25T08:14:06.594Z,168.75
2019-04-25T08:15:06.621Z,168.75
2019-04-25T08:16:06.586Z,168.75
2019-04-25T08:17:06.561Z,168.75
2019-04-25T08:18:06.551Z,163.12
2019-04-25T08:19:06.541Z,168.75
2019-04-25T08:20:06.521Z,174.38
2019-04-25T08:21:06.577Z,174.38
2019-04-25T08:22:06.501Z,174.38
2019-04-25T08:23:06.500Z,174.38
2019-04-25T08:24:06.481Z,174.38
2019-04-25T08:25:06.471Z,174.38
2019-04-25T08:26:06.519Z,168.75
2019-04-25T08:27:06.449Z,168.75
2019-04-25T08:28:06.462Z,168.75
2019-04-25T08:29:06.466Z,168.75
2019-04-25T08:30:06.422Z,163.12
2019-04-25T08:31:06.421Z,168.75
2019-04-25T08:32:06.402Z,168.75
2019-04-25T08:33:06.390Z,163.12
2019-04-25T08:34:06.394Z,168.75
2019-04-25T08:35:06.373Z,168.75
2019-04-25T08:36:09.072Z,163.12
2019-04-25T08:37:17.526Z,168.75
2019-04-25T08:38:07.331Z,168.75
2019-04-25T08:39:06.332Z,168.75
2019-04-25T08:40:06.302Z,174.38
2019-04-25T08:41:06.294Z,174.38
2019-04-25T08:42:06.305Z,174.38
2019-04-25T08:43:06.292Z,174.38
2019-04-25T08:44:06.274Z,168.75
2019-04-25T08:45:06.255Z,168.75
2019-04-25T08:46:06.241Z,168.75
2019-04-25T08:47:06.245Z,168.75
2019-04-25T08:48:06.212Z,180.00
2019-04-25T08:49:06.497Z,185.62
2019-04-25T08:50:06.192Z,185.62
2019-04-25T08:51:06.205Z,185.62
2019-04-25T08:52:06.212Z,185.62
2019-04-25T08:53:06.162Z,185.62
2019-04-25T08:54:06.152Z,180.00
2019-04-25T08:55:06.142Z,185.62
2019-04-25T08:56:06.143Z,185.62
2019-04-25T08:57:06.143Z,180.00
2019-04-25T08:58:06.114Z,180.00
2019-04-25T08:59:07.938Z,180.00
2019-04-25T09:00:06.227Z,180.00
2019-04-25T09:01:06.073Z,185.62
2019-04-25T09:02:06.082Z,185.62
2019-04-25T09:03:06.115Z,185.62
2019-04-25T09:04:06.042Z,185.62
2019-04-25T09:05:06.033Z,191.25
2019-04-25T09:06:06.045Z,191.25
2019-04-25T09:07:06.012Z,185.62
2019-04-25T09:08:06.015Z,185.62
2019-04-25T09:09:07.204Z,185.62
2019-04-25T09:10:05.973Z,180.00
2019-04-25T09:11:06.014Z,174.38
2019-04-25T09:12:05.953Z,174.38
2019-04-25T09:13:05.963Z,174.38
2019-04-25T09:14:05.933Z,174.38
2019-04-25T09:15:05.923Z,174.38
2019-04-25T09:16:05.913Z,180.00
2019-04-25T09:17:05.927Z,185.62
2019-04-25T09:18:05.925Z,191.25
2019-04-25T09:19:05.881Z,191.25
2019-04-25T09:20:05.873Z,202.50
2019-04-25T09:21:05.873Z,208.12
2019-04-25T09:22:05.845Z,219.38
2019-04-25T09:23:05.871Z,230.62
2019-04-25T09:24:05.842Z,241.88
2019-04-25T09:25:05.813Z,247.50
2019-04-25T09:26:05.804Z,253.12
2019-04-25T09:27:05.792Z,253.12
2019-04-25T09:28:05.784Z,253.12
2019-04-25T09:29:16.730Z,253.12
2019-04-25T09:30:06.754Z,253.12
2019-04-25T09:31:05.747Z,258.75
2019-04-25T09:32:05.733Z,270.00
2019-04-25T09:33:05.756Z,281.25
2019-04-25T09:34:05.733Z,286.88
2019-04-25T09:35:05.703Z,292.50
2019-04-25T09:36:06.900Z,309.38
2019-04-25T09:37:05.684Z,320.62
2019-04-25T09:38:05.674Z,326.25
2019-04-25T09:39:05.674Z,331.88
2019-04-25T09:40:05.644Z,337.50
2019-04-25T09:41:05.635Z,348.75
2019-04-25T09:42:05.644Z,354.38
2019-04-25T09:43:05.614Z,365.62
2019-04-25T09:44:05.625Z,371.25
2019-04-25T09:45:05.624Z,376.88
2019-04-25T09:46:05.584Z,382.50
2019-04-25T09:47:05.575Z,382.50
2019-04-25T09:48:05.565Z,393.75
2019-04-25T09:49:05.555Z,399.38
2019-04-25T09:50:05.578Z,410.62
2019-04-25T09:51:05.686Z,421.88
2019-04-25T09:52:05.514Z,433.12
2019-04-25T09:53:05.514Z,433.12
2019-04-25T09:54:05.495Z,438.75
2019-04-25T09:55:05.504Z,444.38
2019-04-25T09:56:05.511Z,444.38
2019-04-25T09:57:05.475Z,450.00
2019-04-25T09:58:05.495Z,461.25
2019-04-25T09:59:05.464Z,483.75
2019-04-25T10:00:05.457Z,489.38
2019-04-25T10:01:05.828Z,489.38
2019-04-25T10:02:05.418Z,466.88
2019-04-25T10:03:05.407Z,438.75
2019-04-25T10:04:05.385Z,405.00
2019-04-25T10:05:05.396Z,376.88
2019-04-25T10:06:05.376Z,343.12
2019-04-25T10:07:05.356Z,320.62
2019-04-25T10:08:05.356Z,303.75
2019-04-25T10:09:05.337Z,303.75
2019-04-25T10:10:05.336Z,303.75
2019-04-25T10:11:05.336Z,309.38
2019-04-25T10:12:05.298Z,303.75
2019-04-25T10:13:06.596Z,315.00
2019-04-25T10:14:05.278Z,315.00
2019-04-25T10:15:05.267Z,309.38
2019-04-25T10:16:05.287Z,320.62
2019-04-25T10:17:05.256Z,331.88
2019-04-25T10:18:05.241Z,348.75
2019-04-25T10:19:05.227Z,365.62
2019-04-25T10:20:05.216Z,388.12
2019-04-25T10:21:05.227Z,388.12
2019-04-25T10:22:05.198Z,399.38
2019-04-25T10:23:05.206Z,421.88
2019-04-25T10:24:05.167Z,438.75
2019-04-25T10:25:05.157Z,450.00
2019-04-25T10:26:05.187Z,455.62
2019-04-25T10:27:05.173Z,466.88
2019-04-25T10:28:05.138Z,489.38
2019-04-25T10:29:05.118Z,506.25
2019-04-25T10:30:16.943Z,506.25
2019-04-25T10:31:06.110Z,489.38
2019-04-25T10:32:05.105Z,466.88
2019-04-25T10:33:05.077Z,455.62
2019-04-25T10:34:05.062Z,438.75
2019-04-25T10:35:05.070Z,416.25
2019-04-25T10:36:05.069Z,382.50
2019-04-25T10:37:05.051Z,360.00
2019-04-25T10:38:05.022Z,348.75
2019-04-25T10:39:10.692Z,326.25
2019-04-25T10:40:06.026Z,303.75
2019-04-25T10:41:05.001Z,298.12
2019-04-25T10:42:05.001Z,298.12
2019-04-25T10:43:04.960Z,286.88
2019-04-25T10:44:04.958Z,281.25
2019-04-25T10:45:04.968Z,286.88
2019-04-25T10:46:05.309Z,286.88
2019-04-25T10:47:04.947Z,286.88
2019-04-25T10:48:04.930Z,309.38
2019-04-25T10:49:04.901Z,315.00
2019-04-25T10:50:04.892Z,343.12
2019-04-25T10:51:04.892Z,360.00
2019-04-25T10:52:04.893Z,354.38
2019-04-25T10:53:04.881Z,371.25
2019-04-25T10:54:04.851Z,388.12
2019-04-25T10:55:04.841Z,393.75
2019-04-25T10:56:05.977Z,399.38
2019-04-25T10:57:06.519Z,416.25
2019-04-25T10:58:04.819Z,416.25
2019-04-25T10:59:04.791Z,410.62
2019-04-25T11:00:09.006Z,421.88
2019-04-25T11:01:04.781Z,438.75
2019-04-25T11:02:04.768Z,450.00
2019-04-25T11:03:04.773Z,466.88
2019-04-25T11:04:04.860Z,472.50
2019-04-25T11:05:04.732Z,472.50
2019-04-25T11:06:04.731Z,472.50
2019-04-25T11:07:04.730Z,489.38
2019-04-25T11:08:04.712Z,489.38
2019-04-25T11:09:04.684Z,489.38
2019-04-25T11:10:04.812Z,495.00
2019-04-25T11:11:04.661Z,489.38
2019-04-25T11:12:04.661Z,500.62
2019-04-25T11:13:04.662Z,500.62
2019-04-25T11:14:07.321Z,523.12
2019-04-25T11:15:04.621Z,517.50
2019-04-25T11:16:04.625Z,523.12
2019-04-25T11:17:04.593Z,540.00
2019-04-25T11:18:04.603Z,534.38
2019-04-25T11:19:04.573Z,523.12
2019-04-25T11:20:05.531Z,500.62
2019-04-25T11:21:06.086Z,483.75
2019-04-25T11:22:04.546Z,500.62
2019-04-25T11:23:04.544Z,455.62
2019-04-25T11:24:04.525Z,461.25
2019-04-25T11:25:04.512Z,450.00
2019-04-25T11:26:04.502Z,433.12
2019-04-25T11:27:04.494Z,410.62
2019-04-25T11:28:04.504Z,388.12
2019-04-25T11:29:04.494Z,371.25
2019-04-25T11:30:11.153Z,343.12
2019-04-25T11:31:05.455Z,320.62
2019-04-25T11:32:04.454Z,292.50
2019-04-25T11:33:04.425Z,275.62
2019-04-25T11:34:04.434Z,258.75
2019-04-25T11:35:05.128Z,247.50
2019-04-25T11:36:04.415Z,236.25
2019-04-25T11:37:05.917Z,230.62
2019-04-25T11:38:05.504Z,225.00
2019-04-25T11:39:04.383Z,213.75
2019-04-25T11:40:04.478Z,213.75
2019-04-25T11:41:04.343Z,241.88
2019-04-25T11:42:04.326Z,292.50
2019-04-25T11:43:04.369Z,253.12
2019-04-25T11:44:04.335Z,213.75
2019-04-25T11:45:04.881Z,202.50
2019-04-25T11:46:04.954Z,191.25
2019-04-25T11:47:06.912Z,196.88
2019-04-25T11:48:05.332Z,202.50
2019-04-25T11:49:04.478Z,202.50
2019-04-25T11:50:04.259Z,180.00
2019-04-25T11:51:04.235Z,180.00
2019-04-25T11:52:05.249Z,174.38
2019-04-25T11:53:04.827Z,174.38
2019-04-25T11:54:04.199Z,180.00
2019-04-25T11:55:04.297Z,180.00
2019-04-25T11:56:04.197Z,191.25
2019-04-25T11:57:04.171Z,202.50
2019-04-25T11:58:04.163Z,213.75
2019-04-25T11:59:04.606Z,219.38
2019-04-25T12:00:04.334Z,225.00
2019-04-25T12:01:05.142Z,241.88
2019-04-25T12:02:04.659Z,236.25
2019-04-25T12:03:04.108Z,253.12
2019-04-25T12:04:04.156Z,247.50
2019-04-25T12:05:04.466Z,253.12
2019-04-25T12:06:04.087Z,253.12
2019-04-25T12:07:06.760Z,258.75
2019-04-25T12:08:04.176Z,270.00
2019-04-25T12:09:04.169Z,281.25
2019-04-25T12:10:04.061Z,292.50
2019-04-25T12:11:05.823Z,298.12
2019-04-25T12:12:05.731Z,298.12
2019-04-25T12:13:04.292Z,315.00
2019-04-25T12:14:04.382Z,326.25
2019-04-25T12:15:04.434Z,331.88
2019-04-25T12:16:04.177Z,337.50
2019-04-25T12:17:03.967Z,354.38
2019-04-25T12:18:04.672Z,331.88
2019-04-25T12:19:04.805Z,337.50
2019-04-25T12:20:04.029Z,360.00
2019-04-25T12:21:04.236Z,376.88
2019-04-25T12:22:04.111Z,399.38
2019-04-25T12:23:10.051Z,405.00
2019-04-25T12:24:05.879Z,438.75
2019-04-25T12:25:04.681Z,450.00
2019-04-25T12:26:04.001Z,472.50
2019-04-25T12:27:04.382Z,483.75
2019-04-25T12:28:04.585Z,489.38
2019-04-25T12:29:04.420Z,450.00
2019-04-25T12:30:05.447Z,421.88
2019-04-25T12:31:03.821Z,399.38
2019-04-25T12:32:04.095Z,376.88
2019-04-25T12:33:03.778Z,365.62
2019-04-25T12:34:03.792Z,360.00
2019-04-25T12:35:04.093Z,360.00
2019-04-25T12:36:03.743Z,376.88
2019-04-25T12:37:04.021Z,388.12
2019-04-25T12:38:03.722Z,405.00
2019-04-25T12:39:03.732Z,421.88
2019-04-25T12:40:04.398Z,444.38
2019-04-25T12:41:04.118Z,461.25
2019-04-25T12:42:04.291Z,478.12
2019-04-25T12:43:05.218Z,489.38
2019-04-25T12:44:03.717Z,495.00
2019-04-25T12:45:04.067Z,506.25
2019-04-25T12:46:03.642Z,483.75
2019-04-25T12:47:03.654Z,495.00
2019-04-25T12:48:04.118Z,478.12
2019-04-25T12:49:03.604Z,472.50
2019-04-25T12:50:04.036Z,466.88
2019-04-25T12:51:03.603Z,450.00